sensor_id;sensor_type;location;lat;lon;timestamp;P1;durP1;ratioP1;P2;durP2;ratioP2
41683;SDS011;27369;52.030;4.586;2022-09-09T00:00:21;10.73;;;5.50;;
41683;SDS011;27369;52.030;4.586;2022-09-09T00:05:43;8.50;;;5.60;;
41683;SDS011;27369;52.030;4.586;2022-09-09T00:08:21;10.85;;;5.72;;
41683;SDS011;27369;52.030;4.586;2022-09-09T00:10:58;8.75;;;5.68;;
41683;SDS011;27369;52.030;4.586;2022-09-09T00:13:43;8.48;;;6.13;;
41683;SDS011;27369;52.030;4.586;2022-09-09T00:21:26;9.68;;;7.75;;
41683;SDS011;27369;52.030;4.586;2022-09-09T00:23:58;8.80;;;6.93;;
41683;SDS011;27369;52.030;4.586;2022-09-09T00:26:42;10.30;;;7.00;;
41683;SDS011;27369;52.030;4.586;2022-09-09T00:29:26;11.43;;;7.10;;
41683;SDS011;27369;52.030;4.586;2022-09-09T00:31:59;10.30;;;7.40;;
41683;SDS011;27369;52.030;4.586;2022-09-09T00:34:38;12.73;;;7.80;;
41683;SDS011;27369;52.030;4.586;2022-09-09T00:37:09;10.27;;;7.53;;
41683;SDS011;27369;52.030;4.586;2022-09-09T00:39:38;10.63;;;7.57;;
41683;SDS011;27369;52.030;4.586;2022-09-09T00:44:39;10.73;;;8.60;;
41683;SDS011;27369;52.030;4.586;2022-09-09T00:50:17;11.13;;;8.43;;
41683;SDS011;27369;52.030;4.586;2022-09-09T00:53:35;14.50;;;8.75;;
41683;SDS011;27369;52.030;4.586;2022-09-09T01:01:48;13.00;;;8.25;;
41683;SDS011;27369;52.030;4.586;2022-09-09T01:04:19;12.43;;;8.88;;
41683;SDS011;27369;52.030;4.586;2022-09-09T01:06:55;9.65;;;7.97;;
41683;SDS011;27369;52.030;4.586;2022-09-09T01:09:45;15.85;;;8.88;;
41683;SDS011;27369;52.030;4.586;2022-09-09T01:12:24;14.48;;;9.15;;
41683;SDS011;27369;52.030;4.586;2022-09-09T01:15:23;12.65;;;9.20;;
41683;SDS011;27369;52.030;4.586;2022-09-09T01:18:04;12.98;;;9.15;;
41683;SDS011;27369;52.030;4.586;2022-09-09T01:26:19;16.65;;;10.13;;
41683;SDS011;27369;52.030;4.586;2022-09-09T01:28:48;13.07;;;9.35;;
41683;SDS011;27369;52.030;4.586;2022-09-09T01:31:18;11.13;;;8.68;;
41683;SDS011;27369;52.030;4.586;2022-09-09T01:33:51;11.05;;;8.80;;
41683;SDS011;27369;52.030;4.586;2022-09-09T01:38:45;14.02;;;8.45;;
41683;SDS011;27369;52.030;4.586;2022-09-09T01:41:11;15.77;;;8.73;;
41683;SDS011;27369;52.030;4.586;2022-09-09T01:43:36;11.95;;;7.53;;
41683;SDS011;27369;52.030;4.586;2022-09-09T01:46:02;10.48;;;7.75;;
41683;SDS011;27369;52.030;4.586;2022-09-09T01:48:28;9.68;;;7.25;;
41683;SDS011;27369;52.030;4.586;2022-09-09T01:50:53;13.75;;;7.80;;
41683;SDS011;27369;52.030;4.586;2022-09-09T01:53:19;11.32;;;7.53;;
41683;SDS011;27369;52.030;4.586;2022-09-09T01:55:49;10.88;;;6.63;;
41683;SDS011;27369;52.030;4.586;2022-09-09T01:58:47;9.57;;;6.97;;
41683;SDS011;27369;52.030;4.586;2022-09-09T02:04:19;8.80;;;5.70;;
41683;SDS011;27369;52.030;4.586;2022-09-09T02:13:10;9.88;;;5.20;;
41683;SDS011;27369;52.030;4.586;2022-09-09T02:15:47;8.27;;;5.07;;
41683;SDS011;27369;52.030;4.586;2022-09-09T02:18:17;6.95;;;4.68;;
41683;SDS011;27369;52.030;4.586;2022-09-09T02:20:52;7.97;;;4.95;;
41683;SDS011;27369;52.030;4.586;2022-09-09T02:23:19;6.93;;;4.50;;
41683;SDS011;27369;52.030;4.586;2022-09-09T02:25:45;9.73;;;5.00;;
41683;SDS011;27369;52.030;4.586;2022-09-09T02:28:12;9.90;;;4.90;;
41683;SDS011;27369;52.030;4.586;2022-09-09T02:30:40;7.25;;;4.97;;
41683;SDS011;27369;52.030;4.586;2022-09-09T02:33:09;8.35;;;5.03;;
41683;SDS011;27369;52.030;4.586;2022-09-09T02:35:37;8.40;;;4.82;;
41683;SDS011;27369;52.030;4.586;2022-09-09T02:38:05;9.60;;;5.13;;
41683;SDS011;27369;52.030;4.586;2022-09-09T02:40:35;10.57;;;5.22;;
41683;SDS011;27369;52.030;4.586;2022-09-09T02:43:01;10.70;;;5.38;;
41683;SDS011;27369;52.030;4.586;2022-09-09T02:45:29;8.82;;;5.05;;
41683;SDS011;27369;52.030;4.586;2022-09-09T02:50:54;8.32;;;5.07;;
41683;SDS011;27369;52.030;4.586;2022-09-09T02:53:33;12.25;;;5.85;;
41683;SDS011;27369;52.030;4.586;2022-09-09T02:56:09;11.18;;;5.72;;
41683;SDS011;27369;52.030;4.586;2022-09-09T02:58:43;10.40;;;5.93;;
41683;SDS011;27369;52.030;4.586;2022-09-09T03:01:09;10.25;;;6.03;;
41683;SDS011;27369;52.030;4.586;2022-09-09T03:03:35;10.98;;;6.07;;
41683;SDS011;27369;52.030;4.586;2022-09-09T03:06:00;11.10;;;6.30;;
41683;SDS011;27369;52.030;4.586;2022-09-09T03:08:26;9.52;;;6.03;;
41683;SDS011;27369;52.030;4.586;2022-09-09T03:10:52;12.35;;;6.07;;
41683;SDS011;27369;52.030;4.586;2022-09-09T03:13:19;13.38;;;6.50;;
41683;SDS011;27369;52.030;4.586;2022-09-09T03:15:44;10.07;;;7.00;;
41683;SDS011;27369;52.030;4.586;2022-09-09T03:18:10;11.15;;;6.28;;
41683;SDS011;27369;52.030;4.586;2022-09-09T03:20:35;10.02;;;5.82;;
41683;SDS011;27369;52.030;4.586;2022-09-09T03:23:01;11.23;;;6.43;;
41683;SDS011;27369;52.030;4.586;2022-09-09T03:27:54;10.18;;;5.65;;
41683;SDS011;27369;52.030;4.586;2022-09-09T03:30:23;12.38;;;6.20;;
41683;SDS011;27369;52.030;4.586;2022-09-09T03:32:50;13.57;;;6.05;;
41683;SDS011;27369;52.030;4.586;2022-09-09T03:35:17;10.20;;;4.95;;
41683;SDS011;27369;52.030;4.586;2022-09-09T03:37:43;9.93;;;5.70;;
41683;SDS011;27369;52.030;4.586;2022-09-09T03:40:09;10.85;;;6.15;;
41683;SDS011;27369;52.030;4.586;2022-09-09T03:45:02;11.15;;;5.47;;
41683;SDS011;27369;52.030;4.586;2022-09-09T03:47:29;8.93;;;4.82;;
41683;SDS011;27369;52.030;4.586;2022-09-09T03:49:55;9.75;;;5.30;;
41683;SDS011;27369;52.030;4.586;2022-09-09T03:52:20;11.32;;;5.18;;
41683;SDS011;27369;52.030;4.586;2022-09-09T03:57:12;8.13;;;4.97;;
41683;SDS011;27369;52.030;4.586;2022-09-09T03:59:41;12.88;;;4.93;;
41683;SDS011;27369;52.030;4.586;2022-09-09T04:02:07;8.15;;;4.35;;
41683;SDS011;27369;52.030;4.586;2022-09-09T04:04:32;10.23;;;4.10;;
41683;SDS011;27369;52.030;4.586;2022-09-09T04:06:57;16.60;;;4.53;;
41683;SDS011;27369;52.030;4.586;2022-09-09T04:09:23;7.97;;;3.88;;
41683;SDS011;27369;52.030;4.586;2022-09-09T04:11:48;10.38;;;4.53;;
41683;SDS011;27369;52.030;4.586;2022-09-09T04:14:14;11.25;;;4.00;;
41683;SDS011;27369;52.030;4.586;2022-09-09T04:16:41;8.00;;;3.28;;
41683;SDS011;27369;52.030;4.586;2022-09-09T04:19:09;10.57;;;3.80;;
41683;SDS011;27369;52.030;4.586;2022-09-09T04:21:39;14.27;;;4.30;;
41683;SDS011;27369;52.030;4.586;2022-09-09T04:24:05;10.90;;;3.85;;
41683;SDS011;27369;52.030;4.586;2022-09-09T04:26:33;14.02;;;3.70;;
41683;SDS011;27369;52.030;4.586;2022-09-09T04:29:00;6.68;;;3.47;;
41683;SDS011;27369;52.030;4.586;2022-09-09T04:31:25;9.65;;;3.53;;
41683;SDS011;27369;52.030;4.586;2022-09-09T04:33:51;8.13;;;3.33;;
41683;SDS011;27369;52.030;4.586;2022-09-09T04:36:17;10.45;;;3.50;;
41683;SDS011;27369;52.030;4.586;2022-09-09T04:38:44;8.52;;;2.85;;
41683;SDS011;27369;52.030;4.586;2022-09-09T04:43:36;8.87;;;3.00;;
41683;SDS011;27369;52.030;4.586;2022-09-09T04:46:04;10.80;;;3.10;;
41683;SDS011;27369;52.030;4.586;2022-09-09T04:48:30;7.43;;;2.83;;
41683;SDS011;27369;52.030;4.586;2022-09-09T04:51:06;8.32;;;3.03;;
41683;SDS011;27369;52.030;4.586;2022-09-09T04:53:38;10.35;;;3.22;;
41683;SDS011;27369;52.030;4.586;2022-09-09T04:56:08;11.23;;;3.40;;
41683;SDS011;27369;52.030;4.586;2022-09-09T04:58:37;7.03;;;3.53;;
41683;SDS011;27369;52.030;4.586;2022-09-09T05:01:08;7.57;;;3.47;;
41683;SDS011;27369;52.030;4.586;2022-09-09T05:03:37;11.40;;;3.67;;
41683;SDS011;27369;52.030;4.586;2022-09-09T05:08:36;11.02;;;4.13;;
41683;SDS011;27369;52.030;4.586;2022-09-09T05:11:02;4.80;;;3.45;;
41683;SDS011;27369;52.030;4.586;2022-09-09T05:13:28;8.82;;;3.40;;
41683;SDS011;27369;52.030;4.586;2022-09-09T05:15:56;8.13;;;3.55;;
41683;SDS011;27369;52.030;4.586;2022-09-09T05:18:22;7.40;;;3.58;;
41683;SDS011;27369;52.030;4.586;2022-09-09T05:20:47;14.68;;;4.00;;
41683;SDS011;27369;52.030;4.586;2022-09-09T05:23:14;10.80;;;4.00;;
41683;SDS011;27369;52.030;4.586;2022-09-09T05:25:40;12.45;;;3.60;;
41683;SDS011;27369;52.030;4.586;2022-09-09T05:28:07;12.20;;;4.60;;
41683;SDS011;27369;52.030;4.586;2022-09-09T05:30:32;10.55;;;3.40;;
41683;SDS011;27369;52.030;4.586;2022-09-09T05:32:58;8.68;;;3.22;;
41683;SDS011;27369;52.030;4.586;2022-09-09T05:35:24;7.22;;;3.70;;
41683;SDS011;27369;52.030;4.586;2022-09-09T05:37:49;14.07;;;4.13;;
41683;SDS011;27369;52.030;4.586;2022-09-09T05:40:15;10.63;;;4.07;;
41683;SDS011;27369;52.030;4.586;2022-09-09T05:42:40;8.65;;;4.05;;
41683;SDS011;27369;52.030;4.586;2022-09-09T05:45:07;7.68;;;3.30;;
41683;SDS011;27369;52.030;4.586;2022-09-09T05:47:33;7.78;;;3.25;;
41683;SDS011;27369;52.030;4.586;2022-09-09T05:49:59;10.18;;;3.45;;
41683;SDS011;27369;52.030;4.586;2022-09-09T05:52:24;7.03;;;3.13;;
41683;SDS011;27369;52.030;4.586;2022-09-09T05:54:52;6.82;;;2.83;;
41683;SDS011;27369;52.030;4.586;2022-09-09T05:57:18;8.52;;;3.08;;
41683;SDS011;27369;52.030;4.586;2022-09-09T06:02:09;8.30;;;2.53;;
41683;SDS011;27369;52.030;4.586;2022-09-09T06:04:35;12.77;;;3.33;;
41683;SDS011;27369;52.030;4.586;2022-09-09T06:07:00;11.07;;;2.85;;
41683;SDS011;27369;52.030;4.586;2022-09-09T06:09:26;8.73;;;2.33;;
41683;SDS011;27369;52.030;4.586;2022-09-09T06:11:51;11.07;;;2.85;;
41683;SDS011;27369;52.030;4.586;2022-09-09T06:14:17;8.95;;;2.92;;
41683;SDS011;27369;52.030;4.586;2022-09-09T06:16:46;7.82;;;2.00;;
41683;SDS011;27369;52.030;4.586;2022-09-09T06:19:12;9.80;;;2.80;;
41683;SDS011;27369;52.030;4.586;2022-09-09T06:21:37;5.40;;;2.15;;
41683;SDS011;27369;52.030;4.586;2022-09-09T06:24:03;9.30;;;2.17;;
41683;SDS011;27369;52.030;4.586;2022-09-09T06:26:34;7.75;;;2.65;;
41683;SDS011;27369;52.030;4.586;2022-09-09T06:29:01;7.82;;;2.38;;
41683;SDS011;27369;52.030;4.586;2022-09-09T06:31:29;12.88;;;2.88;;
41683;SDS011;27369;52.030;4.586;2022-09-09T06:33:56;7.28;;;2.55;;
41683;SDS011;27369;52.030;4.586;2022-09-09T06:36:23;10.38;;;2.72;;
41683;SDS011;27369;52.030;4.586;2022-09-09T06:38:50;13.73;;;2.67;;
41683;SDS011;27369;52.030;4.586;2022-09-09T06:41:17;8.48;;;2.05;;
41683;SDS011;27369;52.030;4.586;2022-09-09T06:43:44;10.02;;;2.35;;
41683;SDS011;27369;52.030;4.586;2022-09-09T06:48:36;6.53;;;2.47;;
41683;SDS011;27369;52.030;4.586;2022-09-09T06:51:06;8.05;;;2.65;;
41683;SDS011;27369;52.030;4.586;2022-09-09T06:53:34;10.82;;;2.45;;
41683;SDS011;27369;52.030;4.586;2022-09-09T06:56:01;8.15;;;2.40;;
41683;SDS011;27369;52.030;4.586;2022-09-09T06:58:48;7.45;;;3.22;;
41683;SDS011;27369;52.030;4.586;2022-09-09T07:01:18;10.85;;;2.80;;
41683;SDS011;27369;52.030;4.586;2022-09-09T07:03:46;11.18;;;3.45;;
41683;SDS011;27369;52.030;4.586;2022-09-09T07:06:14;12.48;;;3.25;;
41683;SDS011;27369;52.030;4.586;2022-09-09T07:08:42;11.55;;;3.22;;
41683;SDS011;27369;52.030;4.586;2022-09-09T07:11:08;9.77;;;3.10;;
41683;SDS011;27369;52.030;4.586;2022-09-09T07:13:36;14.70;;;3.67;;
41683;SDS011;27369;52.030;4.586;2022-09-09T07:16:04;7.38;;;2.78;;
41683;SDS011;27369;52.030;4.586;2022-09-09T07:18:31;16.52;;;3.35;;
41683;SDS011;27369;52.030;4.586;2022-09-09T07:20:58;12.55;;;3.28;;
41683;SDS011;27369;52.030;4.586;2022-09-09T07:23:24;6.43;;;2.83;;
41683;SDS011;27369;52.030;4.586;2022-09-09T07:25:49;9.07;;;3.10;;
41683;SDS011;27369;52.030;4.586;2022-09-09T07:28:16;10.93;;;2.88;;
41683;SDS011;27369;52.030;4.586;2022-09-09T07:30:42;13.48;;;3.05;;
41683;SDS011;27369;52.030;4.586;2022-09-09T07:33:08;9.02;;;2.95;;
41683;SDS011;27369;52.030;4.586;2022-09-09T07:35:34;12.43;;;3.13;;
41683;SDS011;27369;52.030;4.586;2022-09-09T07:38:02;9.60;;;3.15;;
41683;SDS011;27369;52.030;4.586;2022-09-09T07:40:29;9.85;;;4.03;;
41683;SDS011;27369;52.030;4.586;2022-09-09T07:42:55;9.27;;;3.78;;
41683;SDS011;27369;52.030;4.586;2022-09-09T07:45:20;9.48;;;3.58;;
41683;SDS011;27369;52.030;4.586;2022-09-09T07:47:46;9.60;;;3.58;;
41683;SDS011;27369;52.030;4.586;2022-09-09T07:50:13;10.43;;;4.15;;
41683;SDS011;27369;52.030;4.586;2022-09-09T07:52:38;7.95;;;3.38;;
41683;SDS011;27369;52.030;4.586;2022-09-09T07:55:04;12.38;;;3.88;;
41683;SDS011;27369;52.030;4.586;2022-09-09T07:57:29;10.63;;;3.92;;
41683;SDS011;27369;52.030;4.586;2022-09-09T07:59:55;9.80;;;3.88;;
41683;SDS011;27369;52.030;4.586;2022-09-09T08:02:22;13.60;;;3.55;;
41683;SDS011;27369;52.030;4.586;2022-09-09T08:04:52;9.27;;;3.50;;
41683;SDS011;27369;52.030;4.586;2022-09-09T08:07:18;8.52;;;3.70;;
41683;SDS011;27369;52.030;4.586;2022-09-09T08:12:09;11.60;;;3.90;;
41683;SDS011;27369;52.030;4.586;2022-09-09T08:14:35;8.38;;;3.60;;
41683;SDS011;27369;52.030;4.586;2022-09-09T08:17:01;10.88;;;3.92;;
41683;SDS011;27369;52.030;4.586;2022-09-09T08:19:26;10.45;;;3.75;;
41683;SDS011;27369;52.030;4.586;2022-09-09T08:21:54;8.10;;;3.50;;
41683;SDS011;27369;52.030;4.586;2022-09-09T08:24:20;9.55;;;3.63;;
41683;SDS011;27369;52.030;4.586;2022-09-09T08:26:46;11.70;;;3.63;;
41683;SDS011;27369;52.030;4.586;2022-09-09T08:29:14;12.55;;;3.80;;
41683;SDS011;27369;52.030;4.586;2022-09-09T08:31:53;11.05;;;3.58;;
41683;SDS011;27369;52.030;4.586;2022-09-09T08:34:22;9.00;;;3.50;;
41683;SDS011;27369;52.030;4.586;2022-09-09T08:36:48;7.95;;;3.40;;
41683;SDS011;27369;52.030;4.586;2022-09-09T08:39:16;12.18;;;4.00;;
41683;SDS011;27369;52.030;4.586;2022-09-09T08:42:02;11.88;;;4.00;;
41683;SDS011;27369;52.030;4.586;2022-09-09T08:52:28;7.32;;;3.28;;
41683;SDS011;27369;52.030;4.586;2022-09-09T08:54:56;11.07;;;3.38;;
41683;SDS011;27369;52.030;4.586;2022-09-09T08:57:28;13.43;;;3.88;;
41683;SDS011;27369;52.030;4.586;2022-09-09T08:59:57;9.85;;;3.88;;
41683;SDS011;27369;52.030;4.586;2022-09-09T09:05:31;13.00;;;4.20;;
41683;SDS011;27369;52.030;4.586;2022-09-09T09:10:59;8.73;;;4.60;;
41683;SDS011;27369;52.030;4.586;2022-09-09T09:16:23;12.25;;;4.65;;
41683;SDS011;27369;52.030;4.586;2022-09-09T09:18:57;10.18;;;3.78;;
41683;SDS011;27369;52.030;4.586;2022-09-09T09:23:59;10.00;;;3.90;;
41683;SDS011;27369;52.030;4.586;2022-09-09T09:26:33;12.27;;;4.43;;
41683;SDS011;27369;52.030;4.586;2022-09-09T09:29:01;12.20;;;4.28;;
41683;SDS011;27369;52.030;4.586;2022-09-09T09:31:35;11.20;;;4.10;;
41683;SDS011;27369;52.030;4.586;2022-09-09T09:34:00;9.23;;;3.55;;
41683;SDS011;27369;52.030;4.586;2022-09-09T09:37:00;13.20;;;4.53;;
41683;SDS011;27369;52.030;4.586;2022-09-09T09:39:31;7.95;;;3.80;;
41683;SDS011;27369;52.030;4.586;2022-09-09T09:42:10;12.32;;;4.78;;
41683;SDS011;27369;52.030;4.586;2022-09-09T09:44:39;13.75;;;4.57;;
41683;SDS011;27369;52.030;4.586;2022-09-09T09:49:31;9.20;;;3.95;;
41683;SDS011;27369;52.030;4.586;2022-09-09T09:52:01;7.38;;;3.30;;
41683;SDS011;27369;52.030;4.586;2022-09-09T09:54:37;8.52;;;3.03;;
41683;SDS011;27369;52.030;4.586;2022-09-09T09:57:14;8.32;;;2.70;;
41683;SDS011;27369;52.030;4.586;2022-09-09T09:59:41;9.20;;;2.95;;
41683;SDS011;27369;52.030;4.586;2022-09-09T10:02:21;11.57;;;3.30;;
41683;SDS011;27369;52.030;4.586;2022-09-09T10:05:35;8.82;;;3.08;;
41683;SDS011;27369;52.030;4.586;2022-09-09T10:07:39;9.55;;;2.35;;
41683;SDS011;27369;52.030;4.586;2022-09-09T10:10:04;10.20;;;3.65;;
41683;SDS011;27369;52.030;4.586;2022-09-09T10:15:31;13.73;;;2.75;;
41683;SDS011;27369;52.030;4.586;2022-09-09T10:34:58;6.93;;;2.47;;
41683;SDS011;27369;52.030;4.586;2022-09-09T10:40:24;8.25;;;2.60;;
41683;SDS011;27369;52.030;4.586;2022-09-09T10:42:56;7.82;;;2.40;;
41683;SDS011;27369;52.030;4.586;2022-09-09T10:45:32;9.57;;;2.85;;
41683;SDS011;27369;52.030;4.586;2022-09-09T10:53:44;11.25;;;3.20;;
41683;SDS011;27369;52.030;4.586;2022-09-09T10:56:16;9.52;;;2.42;;
41683;SDS011;27369;52.030;4.586;2022-09-09T11:04:19;4.72;;;2.53;;
41683;SDS011;27369;52.030;4.586;2022-09-09T11:06:50;7.82;;;2.72;;
41683;SDS011;27369;52.030;4.586;2022-09-09T11:09:21;10.40;;;2.92;;
41683;SDS011;27369;52.030;4.586;2022-09-09T11:11:55;9.50;;;3.42;;
41683;SDS011;27369;52.030;4.586;2022-09-09T11:14:40;8.05;;;3.15;;
41683;SDS011;27369;52.030;4.586;2022-09-09T11:17:16;8.38;;;3.00;;
41683;SDS011;27369;52.030;4.586;2022-09-09T11:19:46;6.78;;;3.10;;
41683;SDS011;27369;52.030;4.586;2022-09-09T11:24:47;7.80;;;3.33;;
41683;SDS011;27369;52.030;4.586;2022-09-09T11:27:24;7.85;;;2.90;;
41683;SDS011;27369;52.030;4.586;2022-09-09T11:40:09;6.60;;;2.90;;
41683;SDS011;27369;52.030;4.586;2022-09-09T11:42:41;5.23;;;2.17;;
41683;SDS011;27369;52.030;4.586;2022-09-09T11:45:08;4.88;;;2.38;;
41683;SDS011;27369;52.030;4.586;2022-09-09T11:48:04;7.38;;;2.65;;
41683;SDS011;27369;52.030;4.586;2022-09-09T11:50:34;8.50;;;2.20;;
41683;SDS011;27369;52.030;4.586;2022-09-09T11:53:15;5.10;;;2.15;;
41683;SDS011;27369;52.030;4.586;2022-09-09T11:55:48;6.40;;;1.83;;
41683;SDS011;27369;52.030;4.586;2022-09-09T11:58:26;6.53;;;1.85;;
41683;SDS011;27369;52.030;4.586;2022-09-09T12:00:57;5.03;;;2.00;;
41683;SDS011;27369;52.030;4.586;2022-09-09T12:03:43;8.00;;;2.27;;
41683;SDS011;27369;52.030;4.586;2022-09-09T12:08:53;7.03;;;2.75;;
41683;SDS011;27369;52.030;4.586;2022-09-09T12:11:41;6.93;;;2.95;;
41683;SDS011;27369;52.030;4.586;2022-09-09T12:14:23;5.63;;;2.88;;
41683;SDS011;27369;52.030;4.586;2022-09-09T12:19:44;9.95;;;3.85;;
41683;SDS011;27369;52.030;4.586;2022-09-09T12:30:30;8.25;;;2.85;;
41683;SDS011;27369;52.030;4.586;2022-09-09T12:33:06;8.90;;;2.90;;
41683;SDS011;27369;52.030;4.586;2022-09-09T12:35:37;12.15;;;3.08;;
41683;SDS011;27369;52.030;4.586;2022-09-09T12:38:04;13.45;;;3.50;;
41683;SDS011;27369;52.030;4.586;2022-09-09T12:40:35;7.38;;;3.20;;
41683;SDS011;27369;52.030;4.586;2022-09-09T12:43:01;7.55;;;2.90;;
41683;SDS011;27369;52.030;4.586;2022-09-09T12:45:31;9.45;;;3.50;;
41683;SDS011;27369;52.030;4.586;2022-09-09T12:50:48;5.55;;;2.75;;
41683;SDS011;27369;52.030;4.586;2022-09-09T12:55:54;6.45;;;2.80;;
41683;SDS011;27369;52.030;4.586;2022-09-09T12:58:24;8.23;;;3.03;;
41683;SDS011;27369;52.030;4.586;2022-09-09T13:00:53;7.82;;;3.13;;
41683;SDS011;27369;52.030;4.586;2022-09-09T13:03:23;7.70;;;2.92;;
41683;SDS011;27369;52.030;4.586;2022-09-09T13:05:50;5.65;;;2.90;;
41683;SDS011;27369;52.030;4.586;2022-09-09T13:08:16;7.63;;;3.10;;
41683;SDS011;27369;52.030;4.586;2022-09-09T13:16:18;4.63;;;2.55;;
41683;SDS011;27369;52.030;4.586;2022-09-09T13:18:56;3.10;;;1.58;;
41683;SDS011;27369;52.030;4.586;2022-09-09T13:21:35;4.35;;;1.73;;
41683;SDS011;27369;52.030;4.586;2022-09-09T13:24:02;4.53;;;1.80;;
41683;SDS011;27369;52.030;4.586;2022-09-09T13:26:32;3.17;;;1.55;;
41683;SDS011;27369;52.030;4.586;2022-09-09T13:29:16;4.65;;;1.60;;
41683;SDS011;27369;52.030;4.586;2022-09-09T13:31:43;5.85;;;1.48;;
41683;SDS011;27369;52.030;4.586;2022-09-09T13:34:28;3.10;;;1.40;;
41683;SDS011;27369;52.030;4.586;2022-09-09T13:37:02;4.82;;;1.60;;
41683;SDS011;27369;52.030;4.586;2022-09-09T13:39:36;4.40;;;1.30;;
41683;SDS011;27369;52.030;4.586;2022-09-09T13:42:02;3.22;;;1.20;;
41683;SDS011;27369;52.030;4.586;2022-09-09T13:44:30;4.05;;;1.35;;
41683;SDS011;27369;52.030;4.586;2022-09-09T13:47:06;2.92;;;1.23;;
41683;SDS011;27369;52.030;4.586;2022-09-09T13:49:46;5.00;;;1.40;;
41683;SDS011;27369;52.030;4.586;2022-09-09T13:54:40;5.40;;;1.65;;
41683;SDS011;27369;52.030;4.586;2022-09-09T13:57:13;5.73;;;1.90;;
41683;SDS011;27369;52.030;4.586;2022-09-09T13:59:44;5.18;;;1.67;;
41683;SDS011;27369;52.030;4.586;2022-09-09T14:02:10;6.32;;;1.77;;
41683;SDS011;27369;52.030;4.586;2022-09-09T14:04:35;3.55;;;1.77;;
41683;SDS011;27369;52.030;4.586;2022-09-09T14:07:01;6.95;;;1.63;;
41683;SDS011;27369;52.030;4.586;2022-09-09T14:09:27;4.07;;;1.45;;
41683;SDS011;27369;52.030;4.586;2022-09-09T14:11:53;4.65;;;1.55;;
41683;SDS011;27369;52.030;4.586;2022-09-09T14:14:20;3.17;;;1.40;;
41683;SDS011;27369;52.030;4.586;2022-09-09T14:16:45;3.95;;;1.42;;
41683;SDS011;27369;52.030;4.586;2022-09-09T14:19:10;3.70;;;1.15;;
41683;SDS011;27369;52.030;4.586;2022-09-09T14:21:36;2.55;;;0.90;;
41683;SDS011;27369;52.030;4.586;2022-09-09T14:24:01;5.47;;;0.90;;
41683;SDS011;27369;52.030;4.586;2022-09-09T14:26:27;4.40;;;1.15;;
41683;SDS011;27369;52.030;4.586;2022-09-09T14:28:54;4.38;;;1.40;;
41683;SDS011;27369;52.030;4.586;2022-09-09T14:31:20;3.30;;;1.25;;
41683;SDS011;27369;52.030;4.586;2022-09-09T14:33:46;5.00;;;1.48;;
41683;SDS011;27369;52.030;4.586;2022-09-09T14:36:12;3.83;;;1.52;;
41683;SDS011;27369;52.030;4.586;2022-09-09T14:38:37;3.60;;;1.42;;
41683;SDS011;27369;52.030;4.586;2022-09-09T14:41:07;4.80;;;1.98;;
41683;SDS011;27369;52.030;4.586;2022-09-09T14:43:35;4.50;;;1.42;;
41683;SDS011;27369;52.030;4.586;2022-09-09T14:46:06;6.78;;;1.67;;
41683;SDS011;27369;52.030;4.586;2022-09-09T14:48:38;5.90;;;1.52;;
41683;SDS011;27369;52.030;4.586;2022-09-09T14:51:17;6.68;;;1.52;;
41683;SDS011;27369;52.030;4.586;2022-09-09T14:53:47;7.32;;;1.92;;
41683;SDS011;27369;52.030;4.586;2022-09-09T14:56:17;3.20;;;1.17;;
41683;SDS011;27369;52.030;4.586;2022-09-09T14:58:45;6.32;;;1.40;;
41683;SDS011;27369;52.030;4.586;2022-09-09T15:01:12;4.97;;;1.23;;
41683;SDS011;27369;52.030;4.586;2022-09-09T15:03:43;9.30;;;1.40;;
41683;SDS011;27369;52.030;4.586;2022-09-09T15:06:15;5.63;;;1.20;;
41683;SDS011;27369;52.030;4.586;2022-09-09T15:11:07;4.38;;;1.25;;
41683;SDS011;27369;52.030;4.586;2022-09-09T15:13:34;6.53;;;1.38;;
41683;SDS011;27369;52.030;4.586;2022-09-09T15:16:15;4.78;;;1.17;;
41683;SDS011;27369;52.030;4.586;2022-09-09T15:18:42;5.47;;;1.17;;
41683;SDS011;27369;52.030;4.586;2022-09-09T15:21:10;7.32;;;1.30;;
41683;SDS011;27369;52.030;4.586;2022-09-09T15:23:40;7.97;;;1.38;;
41683;SDS011;27369;52.030;4.586;2022-09-09T15:28:35;4.47;;;1.27;;
41683;SDS011;27369;52.030;4.586;2022-09-09T15:31:22;5.13;;;1.00;;
41683;SDS011;27369;52.030;4.586;2022-09-09T15:33:49;6.07;;;1.40;;
41683;SDS011;27369;52.030;4.586;2022-09-09T15:38:42;6.38;;;1.38;;
41683;SDS011;27369;52.030;4.586;2022-09-09T15:41:08;4.95;;;1.25;;
41683;SDS011;27369;52.030;4.586;2022-09-09T15:43:34;7.87;;;1.37;;
41683;SDS011;27369;52.030;4.586;2022-09-09T15:46:08;5.65;;;2.00;;
41683;SDS011;27369;52.030;4.586;2022-09-09T15:48:42;5.93;;;1.50;;
41683;SDS011;27369;52.030;4.586;2022-09-09T15:51:10;6.80;;;2.13;;
41683;SDS011;27369;52.030;4.586;2022-09-09T15:53:39;5.13;;;1.73;;
41683;SDS011;27369;52.030;4.586;2022-09-09T15:56:05;7.05;;;1.88;;
41683;SDS011;27369;52.030;4.586;2022-09-09T15:58:31;8.15;;;2.67;;
41683;SDS011;27369;52.030;4.586;2022-09-09T16:03:37;7.03;;;2.60;;
41683;SDS011;27369;52.030;4.586;2022-09-09T16:06:04;9.00;;;2.80;;
41683;SDS011;27369;52.030;4.586;2022-09-09T16:08:34;10.30;;;3.22;;
41683;SDS011;27369;52.030;4.586;2022-09-09T16:11:08;7.78;;;3.65;;
41683;SDS011;27369;52.030;4.586;2022-09-09T16:13:37;12.25;;;4.00;;
41683;SDS011;27369;52.030;4.586;2022-09-09T16:16:07;9.75;;;3.53;;
41683;SDS011;27369;52.030;4.586;2022-09-09T16:18:34;7.00;;;3.67;;
41683;SDS011;27369;52.030;4.586;2022-09-09T16:21:00;6.35;;;3.80;;
41683;SDS011;27369;52.030;4.586;2022-09-09T16:23:26;8.77;;;4.10;;
41683;SDS011;27369;52.030;4.586;2022-09-09T16:25:55;12.23;;;5.10;;
41683;SDS011;27369;52.030;4.586;2022-09-09T16:28:21;7.72;;;4.50;;
41683;SDS011;27369;52.030;4.586;2022-09-09T16:33:12;10.93;;;5.10;;
41683;SDS011;27369;52.030;4.586;2022-09-09T16:35:39;7.03;;;4.15;;
41683;SDS011;27369;52.030;4.586;2022-09-09T16:40:33;7.00;;;4.28;;
41683;SDS011;27369;52.030;4.586;2022-09-09T16:43:00;10.45;;;5.45;;
41683;SDS011;27369;52.030;4.586;2022-09-09T16:47:51;10.80;;;5.40;;
41683;SDS011;27369;52.030;4.586;2022-09-09T16:50:16;9.43;;;5.33;;
41683;SDS011;27369;52.030;4.586;2022-09-09T16:52:42;5.78;;;4.10;;
41683;SDS011;27369;52.030;4.586;2022-09-09T16:55:07;7.85;;;4.20;;
41683;SDS011;27369;52.030;4.586;2022-09-09T16:57:34;8.57;;;4.50;;
41683;SDS011;27369;52.030;4.586;2022-09-09T16:59:59;8.20;;;3.35;;
41683;SDS011;27369;52.030;4.586;2022-09-09T17:04:51;4.53;;;2.67;;
41683;SDS011;27369;52.030;4.586;2022-09-09T17:07:17;5.10;;;2.77;;
41683;SDS011;27369;52.030;4.586;2022-09-09T17:09:44;7.05;;;2.75;;
41683;SDS011;27369;52.030;4.586;2022-09-09T17:12:10;4.63;;;3.25;;
41683;SDS011;27369;52.030;4.586;2022-09-09T17:14:37;5.03;;;3.08;;
41683;SDS011;27369;52.030;4.586;2022-09-09T17:17:03;5.13;;;3.08;;
41683;SDS011;27369;52.030;4.586;2022-09-09T17:21:54;5.90;;;3.83;;
41683;SDS011;27369;52.030;4.586;2022-09-09T17:24:22;8.68;;;4.25;;
41683;SDS011;27369;52.030;4.586;2022-09-09T17:26:47;9.90;;;4.57;;
41683;SDS011;27369;52.030;4.586;2022-09-09T17:29:13;6.93;;;4.50;;
41683;SDS011;27369;52.030;4.586;2022-09-09T17:31:38;5.93;;;3.88;;
41683;SDS011;27369;52.030;4.586;2022-09-09T17:34:05;6.25;;;4.45;;
41683;SDS011;27369;52.030;4.586;2022-09-09T17:36:32;7.53;;;4.90;;
41683;SDS011;27369;52.030;4.586;2022-09-09T17:38:58;11.02;;;4.60;;
41683;SDS011;27369;52.030;4.586;2022-09-09T17:41:26;9.23;;;4.78;;
41683;SDS011;27369;52.030;4.586;2022-09-09T17:43:54;7.70;;;4.35;;
41683;SDS011;27369;52.030;4.586;2022-09-09T17:46:20;9.25;;;4.40;;
41683;SDS011;27369;52.030;4.586;2022-09-09T17:48:48;8.02;;;3.47;;
41683;SDS011;27369;52.030;4.586;2022-09-09T17:51:17;6.80;;;3.45;;
41683;SDS011;27369;52.030;4.586;2022-09-09T17:53:46;9.00;;;3.58;;